ESSP/NRK METAR and TAF weather

Enter ICAO airport designator
Station Type Date Time Source
ESSP METAR 2023/02/04 01:50 UTC NOAA

ESSP 040150Z AUTO 34008KT 9999 NCD M04/M09 Q1030


Station Type Date Time Source
ESSP Decoded METAR 2023/02/04 01:50 UTC NOAA

Norrkoping, Sweden (ESSP) 58-35N 016-09E 0M
Feb 03, 2023 - 08:50 PM EST / 2023.02.04 0150 UTC
Wind: from the NNW (340 degrees) at 9 MPH (8 KT):0
Visibility: greater than 7 mile(s):0
Temperature: 24 F (-4 C)
Windchill: 14 F (-10 C):1
Dew Point: 15 F (-9 C)
Relative Humidity: 68%
Pressure (altimeter): 30.42 in. Hg (1030 hPa)
ob: ESSP 040150Z AUTO 34008KT 9999 NCD M04/M09 Q1030
cycle: 2

Station Type Date Time Source
ESSP TAF 2018/01/01 02:31 UTC NOAA

TAF ESSP 010130Z 0102/0206 16002KT 9999 BKN004 PROB40 0102/0106 4000 BR SCT004

Example: see airport list